Frankston Lake, Texas
Current Conditions -  °F | °C
As of 3:55 AM on Wednesday 26 Nov 2014 (Local Time) from KPSN Reporting Station
Clear Clear  
Wind Chill: 40°   Ceiling: Unl
Heat Index: 42°   Visibility: 10mi
Dew Point: 32°   Wind: 5mph
Humidity: 67%   Direction: 140°SE
Pressure: 30.13"   Gusts: NA
Location:  32.0056°N, 95.5543°W
Report Text: KPSN 260955Z AUTO 14004KT 10SM CLR 06/00 A3013 RMK AO2 T00580000
Loading
Personal Weather Stations






























Interactive Weather Map New forecast layout! Learn more

10-Day Weather Forecast

Advertisements
Track Severe Weather on mobile